TAF and METAR

METAR for King Abdulaziz International Airport

OEJN 192100Z 26002KT CAVOK 31/24 Q1012 NOSIG
Report created 19. okt 23:00
wind 2 knots from W (260°) Clear sky Temperature 31° with dewpoint at 24° (Humidity 66.46%) Pressure 1012 hPa no significant weather change expected the next couple of hours

TAF for King Abdulaziz International Airport

TAF OEJN 191700Z 1918/2024 06008KT 7000 FEW040 BECMG 1920/1922 VRB03KT
Report created 19. okt 19:00

between 19. okt 20:00 - 20. okt 02:00

wind 8 knots from ENE (060°) visibility 7000 meters some clouds (~25% cover) at 4000 feet

becoming between 19. okt 22:00 - 20. okt 00:00

wind 3 knots from various directions
King Abdulaziz International Airport in Saudi Arabia at 15m

Latest 5 airports